sensor_id;sensor_type;location;lat;lon;timestamp;P1;durP1;ratioP1;P2;durP2;ratioP2
13999;SDS011;7075;53.574;10.054;2022-07-03T00:01:38;2.47;;;2.00;;
13999;SDS011;7075;53.574;10.054;2022-07-03T00:04:04;2.77;;;1.63;;
13999;SDS011;7075;53.574;10.054;2022-07-03T00:06:30;2.95;;;2.00;;
13999;SDS011;7075;53.574;10.054;2022-07-03T00:08:57;2.58;;;1.88;;
13999;SDS011;7075;53.574;10.054;2022-07-03T00:11:23;1.98;;;1.70;;
13999;SDS011;7075;53.574;10.054;2022-07-03T00:13:50;2.70;;;1.73;;
13999;SDS011;7075;53.574;10.054;2022-07-03T00:16:15;2.60;;;1.60;;
13999;SDS011;7075;53.574;10.054;2022-07-03T00:18:42;2.85;;;1.77;;
13999;SDS011;7075;53.574;10.054;2022-07-03T00:21:08;2.42;;;1.67;;
13999;SDS011;7075;53.574;10.054;2022-07-03T00:23:38;1.92;;;1.40;;
13999;SDS011;7075;53.574;10.054;2022-07-03T00:26:10;4.55;;;1.63;;
13999;SDS011;7075;53.574;10.054;2022-07-03T00:28:38;7.00;;;1.92;;
13999;SDS011;7075;53.574;10.054;2022-07-03T00:31:05;2.10;;;1.55;;
13999;SDS011;7075;53.574;10.054;2022-07-03T00:33:33;2.92;;;1.88;;
13999;SDS011;7075;53.574;10.054;2022-07-03T00:36:00;2.88;;;2.33;;
13999;SDS011;7075;53.574;10.054;2022-07-03T00:38:27;3.08;;;2.20;;
13999;SDS011;7075;53.574;10.054;2022-07-03T00:40:53;4.67;;;2.53;;
13999;SDS011;7075;53.574;10.054;2022-07-03T00:43:18;3.00;;;2.27;;
13999;SDS011;7075;53.574;10.054;2022-07-03T00:45:46;4.00;;;2.70;;
13999;SDS011;7075;53.574;10.054;2022-07-03T00:48:14;2.58;;;2.33;;
13999;SDS011;7075;53.574;10.054;2022-07-03T00:50:44;3.73;;;2.50;;
13999;SDS011;7075;53.574;10.054;2022-07-03T00:53:12;3.75;;;2.58;;
13999;SDS011;7075;53.574;10.054;2022-07-03T00:55:39;2.38;;;1.90;;
13999;SDS011;7075;53.574;10.054;2022-07-03T00:58:08;3.08;;;2.10;;
13999;SDS011;7075;53.574;10.054;2022-07-03T01:00:34;2.60;;;2.00;;
13999;SDS011;7075;53.574;10.054;2022-07-03T01:03:09;5.47;;;2.00;;
13999;SDS011;7075;53.574;10.054;2022-07-03T01:05:45;2.03;;;1.60;;
13999;SDS011;7075;53.574;10.054;2022-07-03T01:19:45;1.67;;;1.43;;
13999;SDS011;7075;53.574;10.054;2022-07-03T01:22:28;2.40;;;1.38;;
13999;SDS011;7075;53.574;10.054;2022-07-03T01:25:41;1.60;;;1.30;;
13999;SDS011;7075;53.574;10.054;2022-07-03T01:28:12;1.80;;;1.45;;
13999;SDS011;7075;53.574;10.054;2022-07-03T01:30:50;3.05;;;1.30;;
13999;SDS011;7075;53.574;10.054;2022-07-03T01:33:19;2.42;;;1.40;;
13999;SDS011;7075;53.574;10.054;2022-07-03T01:36:02;2.35;;;1.30;;
13999;SDS011;7075;53.574;10.054;2022-07-03T01:38:34;2.40;;;1.48;;
13999;SDS011;7075;53.574;10.054;2022-07-03T01:41:02;2.58;;;1.40;;
13999;SDS011;7075;53.574;10.054;2022-07-03T01:43:31;1.40;;;1.20;;
13999;SDS011;7075;53.574;10.054;2022-07-03T01:45:59;2.80;;;1.33;;
13999;SDS011;7075;53.574;10.054;2022-07-03T01:48:28;1.73;;;1.30;;
13999;SDS011;7075;53.574;10.054;2022-07-03T01:50:56;3.80;;;1.50;;
13999;SDS011;7075;53.574;10.054;2022-07-03T01:53:26;1.65;;;1.08;;
13999;SDS011;7075;53.574;10.054;2022-07-03T01:55:58;1.83;;;1.27;;
13999;SDS011;7075;53.574;10.054;2022-07-03T01:58:27;1.42;;;1.20;;
13999;SDS011;7075;53.574;10.054;2022-07-03T02:00:57;2.50;;;1.30;;
13999;SDS011;7075;53.574;10.054;2022-07-03T02:03:29;1.50;;;1.20;;
13999;SDS011;7075;53.574;10.054;2022-07-03T02:06:02;3.40;;;1.30;;
13999;SDS011;7075;53.574;10.054;2022-07-03T02:11:18;1.77;;;1.10;;
13999;SDS011;7075;53.574;10.054;2022-07-03T02:13:50;2.60;;;1.30;;
13999;SDS011;7075;53.574;10.054;2022-07-03T02:16:24;2.97;;;1.10;;
13999;SDS011;7075;53.574;10.054;2022-07-03T02:21:28;1.80;;;1.23;;
13999;SDS011;7075;53.574;10.054;2022-07-03T02:26:38;1.35;;;1.00;;
13999;SDS011;7075;53.574;10.054;2022-07-03T02:29:07;2.85;;;1.17;;
13999;SDS011;7075;53.574;10.054;2022-07-03T02:31:38;1.17;;;1.00;;
13999;SDS011;7075;53.574;10.054;2022-07-03T02:34:07;2.53;;;1.52;;
13999;SDS011;7075;53.574;10.054;2022-07-03T02:36:37;2.08;;;1.35;;
13999;SDS011;7075;53.574;10.054;2022-07-03T02:39:04;2.90;;;1.20;;
13999;SDS011;7075;53.574;10.054;2022-07-03T02:41:42;2.08;;;1.10;;
13999;SDS011;7075;53.574;10.054;2022-07-03T02:44:57;2.28;;;1.25;;
13999;SDS011;7075;53.574;10.054;2022-07-03T02:55:31;1.20;;;1.00;;
13999;SDS011;7075;53.574;10.054;2022-07-03T03:01:15;1.90;;;1.20;;
13999;SDS011;7075;53.574;10.054;2022-07-03T03:04:01;2.63;;;1.25;;
13999;SDS011;7075;53.574;10.054;2022-07-03T03:09:43;4.03;;;1.30;;
13999;SDS011;7075;53.574;10.054;2022-07-03T03:12:11;1.98;;;1.30;;
13999;SDS011;7075;53.574;10.054;2022-07-03T03:14:44;1.45;;;1.20;;
13999;SDS011;7075;53.574;10.054;2022-07-03T03:17:16;1.63;;;1.10;;
13999;SDS011;7075;53.574;10.054;2022-07-03T03:19:46;2.20;;;1.02;;
13999;SDS011;7075;53.574;10.054;2022-07-03T03:25:05;1.52;;;1.20;;
13999;SDS011;7075;53.574;10.054;2022-07-03T03:27:31;1.85;;;1.02;;
13999;SDS011;7075;53.574;10.054;2022-07-03T03:29:57;3.38;;;1.40;;
13999;SDS011;7075;53.574;10.054;2022-07-03T03:32:23;2.20;;;1.20;;
13999;SDS011;7075;53.574;10.054;2022-07-03T03:34:51;2.35;;;1.20;;
13999;SDS011;7075;53.574;10.054;2022-07-03T03:37:16;1.02;;;1.00;;
13999;SDS011;7075;53.574;10.054;2022-07-03T03:39:42;2.80;;;1.23;;
13999;SDS011;7075;53.574;10.054;2022-07-03T03:42:08;1.42;;;1.30;;
13999;SDS011;7075;53.574;10.054;2022-07-03T03:44:35;2.03;;;1.20;;
13999;SDS011;7075;53.574;10.054;2022-07-03T03:47:00;1.35;;;1.25;;
13999;SDS011;7075;53.574;10.054;2022-07-03T03:49:26;1.60;;;1.13;;
13999;SDS011;7075;53.574;10.054;2022-07-03T03:51:53;2.20;;;1.20;;
13999;SDS011;7075;53.574;10.054;2022-07-03T03:54:19;3.20;;;1.27;;
13999;SDS011;7075;53.574;10.054;2022-07-03T03:56:45;5.45;;;1.42;;
13999;SDS011;7075;53.574;10.054;2022-07-03T03:59:11;3.20;;;1.40;;
13999;SDS011;7075;53.574;10.054;2022-07-03T04:01:37;1.30;;;1.10;;
13999;SDS011;7075;53.574;10.054;2022-07-03T04:04:02;3.10;;;1.20;;
13999;SDS011;7075;53.574;10.054;2022-07-03T04:06:28;2.10;;;1.30;;
13999;SDS011;7075;53.574;10.054;2022-07-03T04:08:54;1.40;;;1.00;;
13999;SDS011;7075;53.574;10.054;2022-07-03T04:11:20;1.87;;;1.10;;
13999;SDS011;7075;53.574;10.054;2022-07-03T04:13:45;3.40;;;1.20;;
13999;SDS011;7075;53.574;10.054;2022-07-03T04:16:11;4.70;;;1.38;;
13999;SDS011;7075;53.574;10.054;2022-07-03T04:18:37;2.60;;;1.30;;
13999;SDS011;7075;53.574;10.054;2022-07-03T04:21:03;1.90;;;1.30;;
13999;SDS011;7075;53.574;10.054;2022-07-03T04:23:29;1.80;;;1.23;;
13999;SDS011;7075;53.574;10.054;2022-07-03T04:25:55;3.13;;;1.27;;
13999;SDS011;7075;53.574;10.054;2022-07-03T04:28:20;2.70;;;1.40;;
13999;SDS011;7075;53.574;10.054;2022-07-03T04:30:46;3.50;;;1.23;;
13999;SDS011;7075;53.574;10.054;2022-07-03T04:33:12;2.53;;;1.40;;
13999;SDS011;7075;53.574;10.054;2022-07-03T04:35:38;2.10;;;1.00;;
13999;SDS011;7075;53.574;10.054;2022-07-03T04:38:04;1.77;;;1.50;;
13999;SDS011;7075;53.574;10.054;2022-07-03T04:40:29;1.55;;;1.20;;
13999;SDS011;7075;53.574;10.054;2022-07-03T04:42:55;4.50;;;1.55;;
13999;SDS011;7075;53.574;10.054;2022-07-03T04:45:21;2.30;;;1.60;;
13999;SDS011;7075;53.574;10.054;2022-07-03T04:47:46;2.15;;;1.30;;
13999;SDS011;7075;53.574;10.054;2022-07-03T04:50:12;1.38;;;1.27;;
13999;SDS011;7075;53.574;10.054;2022-07-03T04:52:37;1.50;;;1.30;;
13999;SDS011;7075;53.574;10.054;2022-07-03T04:55:03;5.00;;;1.55;;
13999;SDS011;7075;53.574;10.054;2022-07-03T04:57:29;2.45;;;1.33;;
13999;SDS011;7075;53.574;10.054;2022-07-03T04:59:57;1.83;;;1.30;;
13999;SDS011;7075;53.574;10.054;2022-07-03T05:02:23;1.35;;;1.17;;
13999;SDS011;7075;53.574;10.054;2022-07-03T05:04:48;1.30;;;1.20;;
13999;SDS011;7075;53.574;10.054;2022-07-03T05:07:14;2.30;;;1.30;;
13999;SDS011;7075;53.574;10.054;2022-07-03T05:09:39;3.07;;;1.50;;
13999;SDS011;7075;53.574;10.054;2022-07-03T05:12:05;2.28;;;1.48;;
13999;SDS011;7075;53.574;10.054;2022-07-03T05:14:31;3.47;;;1.40;;
13999;SDS011;7075;53.574;10.054;2022-07-03T05:16:56;1.93;;;1.20;;
13999;SDS011;7075;53.574;10.054;2022-07-03T05:19:22;2.80;;;1.50;;
13999;SDS011;7075;53.574;10.054;2022-07-03T05:21:47;2.67;;;1.30;;
13999;SDS011;7075;53.574;10.054;2022-07-03T05:24:13;3.80;;;2.15;;
13999;SDS011;7075;53.574;10.054;2022-07-03T05:26:39;3.17;;;2.17;;
13999;SDS011;7075;53.574;10.054;2022-07-03T05:29:05;3.45;;;1.98;;
13999;SDS011;7075;53.574;10.054;2022-07-03T05:31:30;4.57;;;1.80;;
13999;SDS011;7075;53.574;10.054;2022-07-03T05:33:56;2.30;;;1.60;;
13999;SDS011;7075;53.574;10.054;2022-07-03T05:36:21;2.90;;;1.70;;
13999;SDS011;7075;53.574;10.054;2022-07-03T05:38:47;2.50;;;1.50;;
13999;SDS011;7075;53.574;10.054;2022-07-03T05:41:31;2.70;;;1.50;;
13999;SDS011;7075;53.574;10.054;2022-07-03T05:43:57;2.35;;;1.45;;
13999;SDS011;7075;53.574;10.054;2022-07-03T05:46:22;2.10;;;1.70;;
13999;SDS011;7075;53.574;10.054;2022-07-03T05:48:48;2.00;;;1.30;;
13999;SDS011;7075;53.574;10.054;2022-07-03T05:51:14;1.35;;;1.25;;
13999;SDS011;7075;53.574;10.054;2022-07-03T05:53:39;2.30;;;1.83;;
13999;SDS011;7075;53.574;10.054;2022-07-03T05:56:05;3.50;;;1.73;;
13999;SDS011;7075;53.574;10.054;2022-07-03T05:58:30;2.60;;;1.50;;
13999;SDS011;7075;53.574;10.054;2022-07-03T06:00:56;4.13;;;1.80;;
13999;SDS011;7075;53.574;10.054;2022-07-03T06:03:22;1.60;;;1.10;;
13999;SDS011;7075;53.574;10.054;2022-07-03T06:05:47;1.60;;;1.30;;
13999;SDS011;7075;53.574;10.054;2022-07-03T06:08:13;1.50;;;1.38;;
13999;SDS011;7075;53.574;10.054;2022-07-03T06:10:38;2.20;;;1.60;;
13999;SDS011;7075;53.574;10.054;2022-07-03T06:13:04;2.03;;;1.73;;
13999;SDS011;7075;53.574;10.054;2022-07-03T06:15:30;3.00;;;1.53;;
13999;SDS011;7075;53.574;10.054;2022-07-03T06:17:55;2.17;;;1.63;;
13999;SDS011;7075;53.574;10.054;2022-07-03T06:20:21;1.80;;;1.50;;
13999;SDS011;7075;53.574;10.054;2022-07-03T06:22:46;2.57;;;1.70;;
13999;SDS011;7075;53.574;10.054;2022-07-03T06:25:12;2.40;;;1.60;;
13999;SDS011;7075;53.574;10.054;2022-07-03T06:27:38;4.43;;;1.77;;
13999;SDS011;7075;53.574;10.054;2022-07-03T06:30:04;2.38;;;1.50;;
13999;SDS011;7075;53.574;10.054;2022-07-03T06:32:30;2.05;;;1.42;;
13999;SDS011;7075;53.574;10.054;2022-07-03T06:34:56;1.45;;;1.33;;
13999;SDS011;7075;53.574;10.054;2022-07-03T06:37:21;1.70;;;1.30;;
13999;SDS011;7075;53.574;10.054;2022-07-03T06:39:47;2.10;;;1.60;;
13999;SDS011;7075;53.574;10.054;2022-07-03T06:42:12;2.33;;;1.30;;
13999;SDS011;7075;53.574;10.054;2022-07-03T06:44:38;3.35;;;1.60;;
13999;SDS011;7075;53.574;10.054;2022-07-03T06:47:04;3.25;;;1.70;;
13999;SDS011;7075;53.574;10.054;2022-07-03T06:49:32;2.50;;;1.53;;
13999;SDS011;7075;53.574;10.054;2022-07-03T06:51:58;3.97;;;1.88;;
13999;SDS011;7075;53.574;10.054;2022-07-03T06:54:24;2.08;;;1.50;;
13999;SDS011;7075;53.574;10.054;2022-07-03T06:56:49;2.80;;;1.77;;
13999;SDS011;7075;53.574;10.054;2022-07-03T06:59:15;2.85;;;1.55;;
13999;SDS011;7075;53.574;10.054;2022-07-03T07:01:40;2.60;;;1.40;;
13999;SDS011;7075;53.574;10.054;2022-07-03T07:04:06;4.43;;;2.10;;
13999;SDS011;7075;53.574;10.054;2022-07-03T07:06:32;2.20;;;1.60;;
13999;SDS011;7075;53.574;10.054;2022-07-03T07:08:57;4.63;;;1.77;;
13999;SDS011;7075;53.574;10.054;2022-07-03T07:11:23;3.60;;;1.70;;
13999;SDS011;7075;53.574;10.054;2022-07-03T07:13:49;4.47;;;2.08;;
13999;SDS011;7075;53.574;10.054;2022-07-03T07:16:14;3.13;;;1.60;;
13999;SDS011;7075;53.574;10.054;2022-07-03T07:18:40;1.90;;;1.40;;
13999;SDS011;7075;53.574;10.054;2022-07-03T07:21:07;1.77;;;1.50;;
13999;SDS011;7075;53.574;10.054;2022-07-03T07:23:33;1.83;;;1.40;;
13999;SDS011;7075;53.574;10.054;2022-07-03T07:25:59;2.07;;;1.33;;
13999;SDS011;7075;53.574;10.054;2022-07-03T07:28:24;2.43;;;1.40;;
13999;SDS011;7075;53.574;10.054;2022-07-03T07:30:50;2.60;;;1.10;;
13999;SDS011;7075;53.574;10.054;2022-07-03T07:33:19;1.90;;;1.35;;
13999;SDS011;7075;53.574;10.054;2022-07-03T07:35:44;1.98;;;1.27;;
13999;SDS011;7075;53.574;10.054;2022-07-03T07:38:10;3.13;;;1.30;;
13999;SDS011;7075;53.574;10.054;2022-07-03T07:40:35;2.22;;;1.33;;
13999;SDS011;7075;53.574;10.054;2022-07-03T07:43:01;1.35;;;1.10;;
13999;SDS011;7075;53.574;10.054;2022-07-03T07:45:27;3.17;;;1.17;;
13999;SDS011;7075;53.574;10.054;2022-07-03T07:47:52;1.75;;;1.20;;
13999;SDS011;7075;53.574;10.054;2022-07-03T07:50:18;1.17;;;1.07;;
13999;SDS011;7075;53.574;10.054;2022-07-03T07:52:43;1.80;;;1.60;;
13999;SDS011;7075;53.574;10.054;2022-07-03T07:55:08;0.90;;;0.90;;
13999;SDS011;7075;53.574;10.054;2022-07-03T07:57:35;1.57;;;1.30;;
13999;SDS011;7075;53.574;10.054;2022-07-03T08:02:34;2.20;;;1.30;;
13999;SDS011;7075;53.574;10.054;2022-07-03T08:05:18;1.50;;;1.23;;
13999;SDS011;7075;53.574;10.054;2022-07-03T08:08:06;1.70;;;1.23;;
13999;SDS011;7075;53.574;10.054;2022-07-03T08:10:37;1.98;;;1.05;;
13999;SDS011;7075;53.574;10.054;2022-07-03T08:13:04;1.90;;;1.00;;
13999;SDS011;7075;53.574;10.054;2022-07-03T08:15:30;3.05;;;1.30;;
13999;SDS011;7075;53.574;10.054;2022-07-03T08:17:55;1.25;;;1.15;;
13999;SDS011;7075;53.574;10.054;2022-07-03T08:20:21;1.63;;;1.03;;
13999;SDS011;7075;53.574;10.054;2022-07-03T08:22:46;1.23;;;0.80;;
13999;SDS011;7075;53.574;10.054;2022-07-03T08:25:12;1.47;;;1.20;;
13999;SDS011;7075;53.574;10.054;2022-07-03T08:27:38;2.43;;;1.20;;
13999;SDS011;7075;53.574;10.054;2022-07-03T08:30:03;2.07;;;1.10;;
13999;SDS011;7075;53.574;10.054;2022-07-03T08:32:29;2.77;;;1.30;;
13999;SDS011;7075;53.574;10.054;2022-07-03T08:34:55;1.13;;;0.93;;
13999;SDS011;7075;53.574;10.054;2022-07-03T08:37:21;2.70;;;1.17;;
13999;SDS011;7075;53.574;10.054;2022-07-03T08:39:46;1.17;;;1.00;;
13999;SDS011;7075;53.574;10.054;2022-07-03T08:42:11;1.60;;;1.10;;
13999;SDS011;7075;53.574;10.054;2022-07-03T08:44:37;0.98;;;0.90;;
13999;SDS011;7075;53.574;10.054;2022-07-03T08:47:04;2.10;;;1.17;;
13999;SDS011;7075;53.574;10.054;2022-07-03T08:49:33;1.80;;;0.90;;
13999;SDS011;7075;53.574;10.054;2022-07-03T08:51:59;1.85;;;1.20;;
13999;SDS011;7075;53.574;10.054;2022-07-03T08:54:26;1.27;;;0.93;;
13999;SDS011;7075;53.574;10.054;2022-07-03T08:56:51;1.95;;;1.10;;
13999;SDS011;7075;53.574;10.054;2022-07-03T08:59:17;4.47;;;1.10;;
13999;SDS011;7075;53.574;10.054;2022-07-03T09:01:45;2.30;;;1.02;;
13999;SDS011;7075;53.574;10.054;2022-07-03T09:04:11;2.00;;;1.15;;
13999;SDS011;7075;53.574;10.054;2022-07-03T09:06:40;0.90;;;0.80;;
13999;SDS011;7075;53.574;10.054;2022-07-03T09:09:07;1.00;;;0.70;;
13999;SDS011;7075;53.574;10.054;2022-07-03T09:11:34;3.73;;;1.07;;
13999;SDS011;7075;53.574;10.054;2022-07-03T09:14:02;2.08;;;1.10;;
13999;SDS011;7075;53.574;10.054;2022-07-03T09:16:31;5.70;;;1.00;;
13999;SDS011;7075;53.574;10.054;2022-07-03T09:19:00;1.20;;;0.90;;
13999;SDS011;7075;53.574;10.054;2022-07-03T09:21:34;1.80;;;1.00;;
13999;SDS011;7075;53.574;10.054;2022-07-03T09:24:03;1.17;;;0.90;;
13999;SDS011;7075;53.574;10.054;2022-07-03T09:26:30;1.10;;;0.80;;
13999;SDS011;7075;53.574;10.054;2022-07-03T09:28:56;1.93;;;0.90;;
13999;SDS011;7075;53.574;10.054;2022-07-03T09:31:22;1.50;;;0.90;;
13999;SDS011;7075;53.574;10.054;2022-07-03T09:36:15;1.73;;;1.00;;
13999;SDS011;7075;53.574;10.054;2022-07-03T09:38:43;2.55;;;0.90;;
13999;SDS011;7075;53.574;10.054;2022-07-03T09:41:12;1.65;;;1.10;;
13999;SDS011;7075;53.574;10.054;2022-07-03T09:43:42;2.00;;;1.30;;
13999;SDS011;7075;53.574;10.054;2022-07-03T09:46:08;2.50;;;1.20;;
13999;SDS011;7075;53.574;10.054;2022-07-03T09:48:38;3.03;;;1.10;;
13999;SDS011;7075;53.574;10.054;2022-07-03T09:51:13;1.85;;;0.90;;
13999;SDS011;7075;53.574;10.054;2022-07-03T09:56:34;1.52;;;1.00;;
13999;SDS011;7075;53.574;10.054;2022-07-03T09:59:05;1.83;;;1.13;;
13999;SDS011;7075;53.574;10.054;2022-07-03T10:01:43;2.58;;;1.13;;
13999;SDS011;7075;53.574;10.054;2022-07-03T10:04:11;1.80;;;0.90;;
13999;SDS011;7075;53.574;10.054;2022-07-03T10:09:17;2.10;;;1.00;;
13999;SDS011;7075;53.574;10.054;2022-07-03T10:11:45;3.05;;;1.10;;
13999;SDS011;7075;53.574;10.054;2022-07-03T10:14:15;3.22;;;1.20;;
13999;SDS011;7075;53.574;10.054;2022-07-03T10:16:45;1.17;;;1.02;;
13999;SDS011;7075;53.574;10.054;2022-07-03T10:19:12;3.92;;;1.35;;
13999;SDS011;7075;53.574;10.054;2022-07-03T10:21:41;1.65;;;1.00;;
13999;SDS011;7075;53.574;10.054;2022-07-03T10:24:08;1.85;;;1.10;;
13999;SDS011;7075;53.574;10.054;2022-07-03T10:26:35;1.83;;;1.20;;
13999;SDS011;7075;53.574;10.054;2022-07-03T10:29:01;2.35;;;1.17;;
13999;SDS011;7075;53.574;10.054;2022-07-03T10:31:27;1.33;;;0.90;;
13999;SDS011;7075;53.574;10.054;2022-07-03T10:33:53;2.10;;;1.20;;
13999;SDS011;7075;53.574;10.054;2022-07-03T10:36:21;2.17;;;0.90;;
13999;SDS011;7075;53.574;10.054;2022-07-03T10:38:48;1.90;;;1.02;;
13999;SDS011;7075;53.574;10.054;2022-07-03T10:41:25;2.83;;;1.08;;
13999;SDS011;7075;53.574;10.054;2022-07-03T10:44:31;0.80;;;0.80;;
13999;SDS011;7075;53.574;10.054;2022-07-03T10:47:36;1.55;;;0.93;;
13999;SDS011;7075;53.574;10.054;2022-07-03T10:50:07;3.20;;;1.10;;
13999;SDS011;7075;53.574;10.054;2022-07-03T10:52:35;1.20;;;1.00;;
13999;SDS011;7075;53.574;10.054;2022-07-03T10:55:00;1.03;;;0.93;;
13999;SDS011;7075;53.574;10.054;2022-07-03T10:57:28;1.42;;;0.98;;
13999;SDS011;7075;53.574;10.054;2022-07-03T11:07:27;2.27;;;1.10;;
13999;SDS011;7075;53.574;10.054;2022-07-03T11:12:55;1.80;;;1.25;;
13999;SDS011;7075;53.574;10.054;2022-07-03T11:20:30;1.70;;;1.00;;
13999;SDS011;7075;53.574;10.054;2022-07-03T11:25:42;1.90;;;0.98;;
13999;SDS011;7075;53.574;10.054;2022-07-03T11:28:08;3.58;;;1.00;;
13999;SDS011;7075;53.574;10.054;2022-07-03T11:38:42;1.92;;;0.93;;
13999;SDS011;7075;53.574;10.054;2022-07-03T11:41:13;0.90;;;0.70;;
13999;SDS011;7075;53.574;10.054;2022-07-03T11:43:47;2.53;;;1.00;;
13999;SDS011;7075;53.574;10.054;2022-07-03T11:46:16;1.30;;;0.80;;
13999;SDS011;7075;53.574;10.054;2022-07-03T11:48:42;0.90;;;0.80;;
13999;SDS011;7075;53.574;10.054;2022-07-03T11:51:08;0.63;;;0.63;;
13999;SDS011;7075;53.574;10.054;2022-07-03T11:53:34;1.67;;;0.77;;
13999;SDS011;7075;53.574;10.054;2022-07-03T11:58:47;1.33;;;0.98;;
13999;SDS011;7075;53.574;10.054;2022-07-03T12:01:27;0.93;;;0.80;;
13999;SDS011;7075;53.574;10.054;2022-07-03T12:04:10;2.40;;;0.90;;
13999;SDS011;7075;53.574;10.054;2022-07-03T12:06:47;2.30;;;1.20;;
13999;SDS011;7075;53.574;10.054;2022-07-03T12:09:18;2.25;;;1.80;;
13999;SDS011;7075;53.574;10.054;2022-07-03T12:12:02;3.10;;;1.88;;
13999;SDS011;7075;53.574;10.054;2022-07-03T12:14:42;1.58;;;1.20;;
13999;SDS011;7075;53.574;10.054;2022-07-03T12:19:56;2.60;;;1.23;;
13999;SDS011;7075;53.574;10.054;2022-07-03T12:25:04;2.47;;;1.63;;
13999;SDS011;7075;53.574;10.054;2022-07-03T12:27:31;4.13;;;1.50;;
13999;SDS011;7075;53.574;10.054;2022-07-03T12:29:58;1.85;;;1.20;;
13999;SDS011;7075;53.574;10.054;2022-07-03T12:32:24;2.15;;;1.15;;
13999;SDS011;7075;53.574;10.054;2022-07-03T12:34:50;2.53;;;1.20;;
13999;SDS011;7075;53.574;10.054;2022-07-03T12:37:16;4.47;;;1.60;;
13999;SDS011;7075;53.574;10.054;2022-07-03T12:39:45;1.70;;;1.00;;
13999;SDS011;7075;53.574;10.054;2022-07-03T12:42:18;2.13;;;1.40;;
13999;SDS011;7075;53.574;10.054;2022-07-03T12:44:59;1.75;;;1.27;;
13999;SDS011;7075;53.574;10.054;2022-07-03T12:47:26;2.85;;;1.10;;
13999;SDS011;7075;53.574;10.054;2022-07-03T12:49:59;2.15;;;1.13;;
13999;SDS011;7075;53.574;10.054;2022-07-03T12:52:26;2.00;;;1.00;;
13999;SDS011;7075;53.574;10.054;2022-07-03T12:54:53;2.75;;;1.00;;
13999;SDS011;7075;53.574;10.054;2022-07-03T12:57:19;1.70;;;1.10;;
13999;SDS011;7075;53.574;10.054;2022-07-03T13:02:42;2.90;;;1.00;;
13999;SDS011;7075;53.574;10.054;2022-07-03T13:07:50;1.30;;;0.98;;
13999;SDS011;7075;53.574;10.054;2022-07-03T13:10:18;4.30;;;1.70;;
13999;SDS011;7075;53.574;10.054;2022-07-03T13:12:47;2.50;;;1.35;;
13999;SDS011;7075;53.574;10.054;2022-07-03T13:15:16;8.57;;;3.90;;
13999;SDS011;7075;53.574;10.054;2022-07-03T13:20:19;7.33;;;4.47;;
13999;SDS011;7075;53.574;10.054;2022-07-03T13:22:47;5.53;;;3.10;;
13999;SDS011;7075;53.574;10.054;2022-07-03T13:25:13;2.70;;;1.92;;
13999;SDS011;7075;53.574;10.054;2022-07-03T13:27:39;2.70;;;1.00;;
13999;SDS011;7075;53.574;10.054;2022-07-03T13:30:04;3.15;;;1.70;;
13999;SDS011;7075;53.574;10.054;2022-07-03T13:32:30;1.80;;;1.10;;
13999;SDS011;7075;53.574;10.054;2022-07-03T13:34:56;2.70;;;1.03;;
13999;SDS011;7075;53.574;10.054;2022-07-03T13:37:21;1.37;;;0.90;;
13999;SDS011;7075;53.574;10.054;2022-07-03T13:39:47;1.20;;;0.70;;
13999;SDS011;7075;53.574;10.054;2022-07-03T13:42:12;1.17;;;0.98;;
13999;SDS011;7075;53.574;10.054;2022-07-03T13:44:38;1.97;;;1.10;;
13999;SDS011;7075;53.574;10.054;2022-07-03T13:47:04;1.50;;;1.13;;
13999;SDS011;7075;53.574;10.054;2022-07-03T13:49:32;1.83;;;1.13;;
13999;SDS011;7075;53.574;10.054;2022-07-03T13:51:58;3.42;;;1.88;;
13999;SDS011;7075;53.574;10.054;2022-07-03T13:54:23;2.37;;;1.40;;
13999;SDS011;7075;53.574;10.054;2022-07-03T13:56:49;1.30;;;0.90;;
13999;SDS011;7075;53.574;10.054;2022-07-03T13:59:16;1.83;;;1.00;;
13999;SDS011;7075;53.574;10.054;2022-07-03T14:01:41;1.17;;;0.82;;
13999;SDS011;7075;53.574;10.054;2022-07-03T14:04:07;0.90;;;0.70;;
13999;SDS011;7075;53.574;10.054;2022-07-03T14:06:33;1.47;;;0.90;;
13999;SDS011;7075;53.574;10.054;2022-07-03T14:08:59;2.15;;;1.10;;
13999;SDS011;7075;53.574;10.054;2022-07-03T14:11:25;2.65;;;1.00;;
13999;SDS011;7075;53.574;10.054;2022-07-03T14:13:52;1.55;;;0.90;;
13999;SDS011;7075;53.574;10.054;2022-07-03T14:16:18;1.50;;;1.20;;
13999;SDS011;7075;53.574;10.054;2022-07-03T14:18:43;2.00;;;1.30;;
13999;SDS011;7075;53.574;10.054;2022-07-03T14:21:09;1.30;;;1.05;;
13999;SDS011;7075;53.574;10.054;2022-07-03T14:23:34;2.47;;;0.83;;
13999;SDS011;7075;53.574;10.054;2022-07-03T14:26:00;1.37;;;1.00;;
13999;SDS011;7075;53.574;10.054;2022-07-03T14:28:26;1.58;;;0.88;;
13999;SDS011;7075;53.574;10.054;2022-07-03T14:31:10;1.13;;;0.82;;
13999;SDS011;7075;53.574;10.054;2022-07-03T14:34:02;1.95;;;0.85;;
13999;SDS011;7075;53.574;10.054;2022-07-03T14:36:27;2.17;;;0.90;;
13999;SDS011;7075;53.574;10.054;2022-07-03T14:38:53;0.90;;;0.80;;
13999;SDS011;7075;53.574;10.054;2022-07-03T14:41:18;0.80;;;0.70;;
13999;SDS011;7075;53.574;10.054;2022-07-03T14:43:44;1.33;;;0.80;;
13999;SDS011;7075;53.574;10.054;2022-07-03T14:46:10;1.67;;;1.03;;
13999;SDS011;7075;53.574;10.054;2022-07-03T14:48:35;1.45;;;0.90;;
13999;SDS011;7075;53.574;10.054;2022-07-03T14:51:01;2.30;;;1.00;;
13999;SDS011;7075;53.574;10.054;2022-07-03T14:53:26;1.20;;;1.00;;
13999;SDS011;7075;53.574;10.054;2022-07-03T14:55:52;2.65;;;0.90;;
13999;SDS011;7075;53.574;10.054;2022-07-03T14:58:20;1.17;;;0.90;;
13999;SDS011;7075;53.574;10.054;2022-07-03T15:00:51;1.50;;;0.73;;
13999;SDS011;7075;53.574;10.054;2022-07-03T15:03:29;0.80;;;0.70;;
13999;SDS011;7075;53.574;10.054;2022-07-03T15:05:57;1.52;;;0.85;;
13999;SDS011;7075;53.574;10.054;2022-07-03T15:10:52;0.73;;;0.73;;
13999;SDS011;7075;53.574;10.054;2022-07-03T15:13:19;1.20;;;0.93;;
13999;SDS011;7075;53.574;10.054;2022-07-03T15:15:46;2.42;;;1.00;;
13999;SDS011;7075;53.574;10.054;2022-07-03T15:18:13;3.45;;;1.00;;
13999;SDS011;7075;53.574;10.054;2022-07-03T15:20:43;2.25;;;1.10;;
13999;SDS011;7075;53.574;10.054;2022-07-03T15:23:09;1.58;;;0.90;;
13999;SDS011;7075;53.574;10.054;2022-07-03T15:25:36;1.63;;;0.90;;
13999;SDS011;7075;53.574;10.054;2022-07-03T15:28:03;1.55;;;0.98;;
13999;SDS011;7075;53.574;10.054;2022-07-03T15:30:29;3.10;;;1.08;;
13999;SDS011;7075;53.574;10.054;2022-07-03T15:32:56;1.73;;;1.10;;
13999;SDS011;7075;53.574;10.054;2022-07-03T15:35:22;4.20;;;3.00;;
13999;SDS011;7075;53.574;10.054;2022-07-03T15:37:54;2.63;;;1.65;;
13999;SDS011;7075;53.574;10.054;2022-07-03T15:40:52;3.08;;;1.52;;
13999;SDS011;7075;53.574;10.054;2022-07-03T15:43:28;1.52;;;1.10;;
13999;SDS011;7075;53.574;10.054;2022-07-03T15:46:22;3.35;;;1.85;;
13999;SDS011;7075;53.574;10.054;2022-07-03T15:51:33;4.80;;;1.20;;
13999;SDS011;7075;53.574;10.054;2022-07-03T15:54:09;4.30;;;1.70;;
13999;SDS011;7075;53.574;10.054;2022-07-03T15:56:38;2.70;;;1.20;;
13999;SDS011;7075;53.574;10.054;2022-07-03T15:59:11;4.82;;;1.33;;
13999;SDS011;7075;53.574;10.054;2022-07-03T16:01:43;6.55;;;1.50;;
13999;SDS011;7075;53.574;10.054;2022-07-03T16:04:45;3.38;;;1.50;;
13999;SDS011;7075;53.574;10.054;2022-07-03T16:07:20;3.78;;;1.50;;
13999;SDS011;7075;53.574;10.054;2022-07-03T16:09:48;3.00;;;1.20;;
13999;SDS011;7075;53.574;10.054;2022-07-03T16:12:15;2.85;;;1.25;;
13999;SDS011;7075;53.574;10.054;2022-07-03T16:14:47;3.67;;;1.17;;
13999;SDS011;7075;53.574;10.054;2022-07-03T16:17:16;3.35;;;1.50;;
13999;SDS011;7075;53.574;10.054;2022-07-03T16:19:44;2.90;;;1.15;;
13999;SDS011;7075;53.574;10.054;2022-07-03T16:22:10;3.33;;;1.35;;
13999;SDS011;7075;53.574;10.054;2022-07-03T16:24:44;2.00;;;1.58;;
13999;SDS011;7075;53.574;10.054;2022-07-03T16:27:12;2.38;;;1.50;;
13999;SDS011;7075;53.574;10.054;2022-07-03T16:29:40;2.65;;;1.25;;
13999;SDS011;7075;53.574;10.054;2022-07-03T16:32:06;3.42;;;1.30;;